Time;durP1;ratioP1;P1;durP2;ratioP2;P2;SDS_P1;SDS_P2;PMS_P1;PMS_P2;Temp;Humidity;BMP_temperature;BMP_pressure;BME280_temperature;BME280_humidity;BME280_pressure;Samples;Min_cycle;Max_cycle;Signal;HPM_P1;HPM_P2
2024/03/07 00:00:22;;;;;;;9.30;8.40;;;11.00;79.10;;;;;;4969369;28;112846;-55
2024/03/07 00:02:49;;;;;;;9.77;8.55;;;10.90;78.90;;;;;;4969818;28;112593;-54
2024/03/07 00:05:16;;;;;;;18.40;16.48;;;10.90;79.20;;;;;;4986549;28;112737;-54
2024/03/07 00:07:42;;;;;;;16.98;15.13;;;11.00;79.20;;;;;;4988419;28;113294;-54
2024/03/07 00:10:09;;;;;;;11.10;10.05;;;10.90;79.20;;;;;;4988146;28;112658;-54
2024/03/07 00:12:36;;;;;;;10.25;9.15;;;11.00;79.50;;;;;;4988857;28;112491;-54
2024/03/07 00:15:03;;;;;;;12.68;11.38;;;10.80;79.70;;;;;;4989681;28;112805;-55
2024/03/07 00:17:29;;;;;;;14.98;13.45;;;10.70;79.90;;;;;;4988075;28;114204;-55
2024/03/07 00:19:54;;;;;;;13.93;12.52;;;10.60;80.20;;;;;;4987786;28;112556;-54
2024/03/07 00:22:20;;;;;;;9.85;8.85;;;10.80;80.00;;;;;;4988964;28;112529;-55
2024/03/07 00:24:47;;;;;;;24.25;21.65;;;10.90;79.50;;;;;;4989708;28;112714;-55
2024/03/07 00:27:14;;;;;;;20.83;18.52;;;10.80;79.30;;;;;;4987694;28;114287;-55
2024/03/07 00:29:40;;;;;;;14.43;12.70;;;10.90;79.40;;;;;;4986988;28;113635;-54
2024/03/07 00:32:07;;;;;;;12.10;10.63;;;10.90;79.40;;;;;;4988658;28;112873;-55
2024/03/07 00:34:33;;;;;;;11.27;8.98;;;11.00;79.30;;;;;;4988593;28;112778;-54
2024/03/07 00:36:59;;;;;;;14.07;12.68;;;10.80;79.30;;;;;;4988964;28;113228;-54
2024/03/07 00:39:25;;;;;;;12.73;11.43;;;10.80;79.60;;;;;;4987585;28;112822;-55
2024/03/07 00:41:51;;;;;;;8.73;7.88;;;10.90;79.60;;;;;;4988586;28;113441;-55
2024/03/07 00:44:16;;;;;;;;;;;11.00;79.60;;;;;;4989779;28;112805;-54
2024/03/07 00:46:42;;;;;;;9.23;8.25;;;11.00;79.30;;;;;;4989982;28;114401;-54
2024/03/07 00:49:08;;;;;;;10.50;9.43;;;11.00;79.20;;;;;;4997695;28;113689;-54
2024/03/07 00:51:34;;;;;;;10.10;8.90;;;10.90;79.30;;;;;;4995364;28;113701;-54
2024/03/07 00:53:59;;;;;;;10.13;8.57;;;10.90;79.50;;;;;;4988510;28;112687;-55
2024/03/07 00:56:25;;;;;;;9.48;8.20;;;10.90;78.90;;;;;;4987887;28;113636;-54
2024/03/07 00:58:51;;;;;;;;;;;10.90;79.00;;;;;;4988384;28;112767;-54
2024/03/07 01:01:20;;;;;;;;;;;10.60;80.10;;;;;;4990522;28;112940;-54
2024/03/07 01:03:46;;;;;;;9.32;7.90;;;10.70;80.00;;;;;;4983423;28;112662;-54
2024/03/07 01:06:11;;;;;;;8.70;7.90;;;10.70;79.80;;;;;;4986517;28;114774;-54
2024/03/07 01:08:38;;;;;;;9.20;8.27;;;10.80;79.80;;;;;;4987888;28;113329;-55
2024/03/07 01:11:09;;;;;;;11.98;8.55;;;10.70;79.80;;;;;;4989085;28;112550;-55
2024/03/07 01:13:36;;;;;;;12.90;10.80;;;10.80;79.80;;;;;;4988784;28;112593;-55
2024/03/07 01:16:02;;;;;;;12.95;11.55;;;10.70;79.60;;;;;;4987114;28;114505;-55
2024/03/07 01:18:28;;;;;;;12.77;11.63;;;10.70;80.20;;;;;;4986938;28;113193;-54
2024/03/07 01:20:54;;;;;;;12.65;11.45;;;10.70;80.00;;;;;;4987938;28;113216;-55
2024/03/07 01:23:20;;;;;;;13.02;11.80;;;10.70;80.00;;;;;;4987988;28;112746;-55
2024/03/07 01:25:46;;;;;;;11.15;10.07;;;10.70;79.80;;;;;;4986813;28;113443;-55
2024/03/07 01:28:13;;;;;;;10.55;9.57;;;10.70;79.70;;;;;;5001947;28;113721;-54
2024/03/07 01:30:39;;;;;;;10.85;9.85;;;10.70;79.50;;;;;;4987979;28;112583;-55
2024/03/07 01:33:05;;;;;;;11.75;10.65;;;10.80;79.50;;;;;;4988600;28;112809;-55
2024/03/07 01:35:30;;;;;;;11.32;10.23;;;10.80;79.40;;;;;;4987051;28;113797;-55
2024/03/07 01:37:56;;;;;;;11.93;10.82;;;10.80;79.10;;;;;;4987180;28;112788;-55
2024/03/07 01:40:22;;;;;;;10.50;9.50;;;10.80;79.70;;;;;;4987690;28;112614;-55
2024/03/07 01:42:50;;;;;;;10.65;9.65;;;10.80;79.30;;;;;;4988262;28;112686;-55
2024/03/07 01:45:18;;;;;;;10.32;9.20;;;10.80;79.20;;;;;;4987222;28;114366;-55
2024/03/07 01:47:44;;;;;;;10.38;9.48;;;10.80;79.20;;;;;;4987152;28;112793;-54
2024/03/07 01:50:10;;;;;;;10.82;9.77;;;10.80;80.30;;;;;;4988182;28;112477;-55
2024/03/07 01:52:39;;;;;;;10.70;9.63;;;10.80;80.00;;;;;;4988407;28;112664;-55
2024/03/07 01:55:05;;;;;;;10.70;9.60;;;10.90;80.00;;;;;;4986972;28;113753;-55
2024/03/07 01:57:31;;;;;;;10.63;9.63;;;10.90;80.60;;;;;;4985901;28;116216;-55
2024/03/07 01:59:57;;;;;;;12.43;11.23;;;11.00;80.60;;;;;;4987880;28;112802;-54
2024/03/07 02:02:23;;;;;;;12.98;11.77;;;10.90;80.30;;;;;;4980676;28;112714;-55
2024/03/07 02:04:49;;;;;;;13.88;12.48;;;11.00;80.20;;;;;;4978486;28;113161;-55
2024/03/07 02:07:15;;;;;;;12.60;11.32;;;11.00;80.00;;;;;;4985809;28;113767;-55
2024/03/07 02:09:41;;;;;;;13.65;12.18;;;10.80;80.30;;;;;;4987374;28;113010;-55
2024/03/07 02:12:08;;;;;;;11.82;10.60;;;10.80;80.70;;;;;;4987224;28;112705;-55
2024/03/07 02:14:34;;;;;;;13.63;11.27;;;10.80;80.60;;;;;;4986028;28;113137;-54
2024/03/07 02:17:00;;;;;;;10.35;9.35;;;10.80;80.40;;;;;;4986087;28;112612;-55
2024/03/07 02:19:26;;;;;;;11.60;10.48;;;10.80;80.20;;;;;;4987647;28;112671;-55
2024/03/07 02:21:51;;;;;;;12.18;10.80;;;10.70;80.20;;;;;;4987415;28;113051;-55
2024/03/07 02:24:17;;;;;;;12.50;10.43;;;10.80;80.50;;;;;;4986040;28;114554;-55
2024/03/07 02:26:43;;;;;;;11.23;10.02;;;10.70;80.80;;;;;;4985897;28;113623;-55
2024/03/07 02:29:09;;;;;;;11.15;10.15;;;10.80;80.60;;;;;;4986020;28;112794;-54
2024/03/07 02:31:37;;;;;;;10.48;9.48;;;10.80;80.60;;;;;;4986641;28;112787;-55
2024/03/07 02:34:03;;;;;;;10.45;9.40;;;10.90;80.10;;;;;;4986471;28;113445;-54
2024/03/07 02:36:29;;;;;;;9.98;8.98;;;10.80;80.00;;;;;;4986497;28;113118;-55
2024/03/07 02:38:55;;;;;;;9.98;8.98;;;10.80;80.10;;;;;;4987911;28;112649;-55
2024/03/07 02:41:21;;;;;;;11.23;10.13;;;10.90;79.70;;;;;;4987542;28;113236;-55
2024/03/07 02:43:47;;;;;;;10.48;9.48;;;10.80;79.70;;;;;;4985854;28;113264;-55
2024/03/07 02:46:12;;;;;;;10.77;9.77;;;10.80;79.90;;;;;;4986621;28;113250;-55
2024/03/07 02:48:39;;;;;;;11.93;10.70;;;10.80;80.30;;;;;;4987326;28;112589;-55
2024/03/07 02:51:08;;;;;;;11.00;9.95;;;10.80;80.10;;;;;;4986527;28;112731;-55
2024/03/07 02:53:33;;;;;;;12.38;11.13;;;10.80;80.30;;;;;;4986534;28;114666;-55
2024/03/07 02:55:59;;;;;;;11.32;10.18;;;10.80;80.50;;;;;;4984957;28;114062;-55
2024/03/07 02:58:25;;;;;;;11.93;10.65;;;10.70;81.10;;;;;;4986174;28;112885;-55
2024/03/07 03:01:01;;;;;;;11.23;10.13;;;10.90;81.00;;;;;;4986353;28;113222;-54
2024/03/07 03:03:27;;;;;;;11.85;10.75;;;10.80;81.20;;;;;;4971763;28;113536;-54
2024/03/07 03:05:53;;;;;;;11.98;10.77;;;10.80;81.60;;;;;;4985819;28;113449;-55
2024/03/07 03:08:18;;;;;;;11.82;10.77;;;10.80;81.40;;;;;;4986453;28;112631;-55
2024/03/07 03:10:44;;;;;;;12.18;10.98;;;10.80;81.60;;;;;;4985995;28;112796;-54
2024/03/07 03:13:10;;;;;;;13.85;11.35;;;10.70;81.50;;;;;;4985467;28;115384;-55
2024/03/07 03:15:37;;;;;;;12.73;11.48;;;10.80;81.70;;;;;;4984915;28;112885;-55
2024/03/07 03:18:05;;;;;;;12.25;11.05;;;10.60;81.80;;;;;;4986116;28;112559;-54
2024/03/07 03:20:33;;;;;;;12.45;11.18;;;10.70;82.00;;;;;;4981079;28;113091;-55
2024/03/07 03:23:02;;;;;;;12.88;11.68;;;10.80;81.50;;;;;;4965478;28;113416;-55
2024/03/07 03:25:28;;;;;;;13.00;11.80;;;10.80;81.40;;;;;;4968885;28;113151;-54
2024/03/07 03:27:54;;;;;;;13.35;12.07;;;10.80;81.80;;;;;;4984430;28;112958;-51
2024/03/07 03:30:21;;;;;;;12.23;11.05;;;10.80;82.00;;;;;;4971660;28;112821;-55
2024/03/07 03:32:47;;;;;;;13.40;12.10;;;10.80;81.80;;;;;;4983699;28;114525;-55
2024/03/07 03:35:15;;;;;;;12.73;11.43;;;10.60;81.60;;;;;;4984961;28;112596;-55
2024/03/07 03:37:44;;;;;;;13.20;11.95;;;10.50;82.00;;;;;;4979148;28;112679;-55
2024/03/07 03:40:11;;;;;;;12.13;11.02;;;10.60;81.80;;;;;;4979786;28;112851;-54
2024/03/07 03:42:40;;;;;;;13.75;12.55;;;10.50;82.90;;;;;;4985241;28;113393;-54
2024/03/07 03:45:15;;;;;;;13.77;12.38;;;10.60;83.00;;;;;;4984871;28;113015;-55
2024/03/07 03:47:42;;;;;;;12.95;11.75;;;10.60;82.90;;;;;;4985822;28;112836;-55
2024/03/07 03:50:10;;;;;;;13.35;12.15;;;10.70;82.40;;;;;;4985869;28;112812;-55
2024/03/07 03:52:37;;;;;;;13.85;12.55;;;10.70;82.40;;;;;;4984792;28;113331;-55
2024/03/07 03:55:05;;;;;;;12.82;11.68;;;10.70;82.40;;;;;;4974784;28;113763;-54
2024/03/07 03:57:32;;;;;;;13.27;12.00;;;10.70;82.60;;;;;;4981725;28;112796;-55
2024/03/07 03:59:58;;;;;;;13.60;12.40;;;10.70;82.50;;;;;;4985626;28;112914;-55
2024/03/07 04:02:24;;;;;;;13.00;11.80;;;10.70;82.30;;;;;;4984769;28;114760;-55
2024/03/07 04:04:54;;;;;;;14.25;13.00;;;10.60;82.50;;;;;;4984596;28;114217;-55
2024/03/07 04:07:20;;;;;;;12.32;11.27;;;10.70;82.60;;;;;;4985463;28;114589;-54
2024/03/07 04:09:46;;;;;;;12.52;11.43;;;10.80;82.10;;;;;;4985418;28;112738;-55
2024/03/07 04:12:13;;;;;;;12.55;11.45;;;10.70;82.30;;;;;;4984687;28;113679;-55
2024/03/07 04:14:43;;;;;;;13.68;12.38;;;10.80;82.30;;;;;;4984399;28;112836;-55
2024/03/07 04:17:14;;;;;;;14.00;12.68;;;10.80;82.50;;;;;;4985664;28;112776;-55
2024/03/07 04:19:41;;;;;;;14.25;12.95;;;10.80;82.60;;;;;;4985418;28;113027;-54
2024/03/07 04:22:08;;;;;;;13.60;12.40;;;10.80;82.80;;;;;;4984348;28;115365;-55
2024/03/07 04:24:35;;;;;;;13.68;12.48;;;10.80;82.80;;;;;;4984395;28;113366;-55
2024/03/07 04:27:03;;;;;;;24.27;19.90;;;10.80;82.90;;;;;;4984137;28;113016;-55
2024/03/07 04:29:33;;;;;;;13.20;11.90;;;10.70;82.80;;;;;;4975145;28;112677;-55
2024/03/07 04:32:01;;;;;;;12.85;11.65;;;10.60;83.00;;;;;;4986603;28;113244;-54
2024/03/07 04:34:30;;;;;;;13.20;12.00;;;10.50;83.30;;;;;;4987593;28;112909;-55
2024/03/07 04:37:05;;;;;;;12.90;11.60;;;10.70;83.20;;;;;;4988804;28;112485;-55
2024/03/07 04:39:32;;;;;;;14.20;12.90;;;10.80;82.70;;;;;;4988887;28;112982;-55
2024/03/07 04:42:02;;;;;;;14.82;13.45;;;10.60;83.10;;;;;;4987461;28;115119;-55
2024/03/07 04:44:28;;;;;;;13.88;12.57;;;10.50;83.40;;;;;;4987574;28;113106;-54
2024/03/07 04:46:55;;;;;;;14.93;13.35;;;10.50;83.50;;;;;;4988406;28;112590;-55
2024/03/07 04:49:25;;;;;;;15.48;13.98;;;10.60;83.50;;;;;;4988393;28;112772;-55
2024/03/07 04:51:55;;;;;;;13.90;12.57;;;10.50;83.40;;;;;;4987518;28;113290;-55
2024/03/07 04:54:22;;;;;;;16.13;13.70;;;10.60;83.40;;;;;;4987240;28;113725;-55
2024/03/07 04:56:49;;;;;;;15.18;13.65;;;10.60;83.40;;;;;;4988394;28;112855;-55
2024/03/07 04:59:16;;;;;;;16.08;14.48;;;10.60;83.20;;;;;;4987928;28;112878;-55
2024/03/07 05:01:43;;;;;;;15.13;13.80;;;10.50;83.80;;;;;;4987322;28;114500;-55
2024/03/07 05:04:09;;;;;;;15.00;13.70;;;10.60;83.70;;;;;;4987262;28;113104;-55
2024/03/07 05:06:35;;;;;;;15.02;13.63;;;10.60;83.40;;;;;;4986681;28;112688;-55
2024/03/07 05:09:02;;;;;;;17.00;14.25;;;10.50;83.20;;;;;;4987891;28;112795;-55
2024/03/07 05:11:29;;;;;;;14.85;13.43;;;10.60;83.30;;;;;;4987308;28;113664;-55
2024/03/07 05:13:55;;;;;;;14.73;13.40;;;10.50;83.20;;;;;;4987161;28;113151;-54
2024/03/07 05:16:20;;;;;;;15.95;14.35;;;10.60;83.40;;;;;;4988277;28;112917;-55
2024/03/07 05:18:46;;;;;;;15.80;14.23;;;10.60;83.30;;;;;;4988066;28;112794;-55
2024/03/07 05:24:11;;;;;;;15.70;14.15;;;10.60;83.30;;;;;;4943927;28;114648;-54
2024/03/07 05:26:40;;;;;;;17.38;15.55;;;10.70;83.60;;;;;;4946028;28;112717;-55
2024/03/07 05:29:09;;;;;;;15.05;13.48;;;10.70;83.60;;;;;;4945348;28;113425;-54
2024/03/07 05:31:44;;;;;;;14.63;13.13;;;10.70;83.30;;;;;;4945068;28;113521;-55
2024/03/07 05:34:12;;;;;;;16.55;14.75;;;10.70;83.40;;;;;;4944663;28;114280;-55
2024/03/07 05:36:45;;;;;;;15.07;13.48;;;10.50;83.60;;;;;;4945757;28;113029;-54
2024/03/07 05:39:11;;;;;;;15.45;13.55;;;10.60;84.10;;;;;;4946662;28;112744;-55
2024/03/07 05:41:41;;;;;;;14.07;12.73;;;10.60;84.10;;;;;;4944656;28;115173;-55
2024/03/07 05:44:08;;;;;;;14.90;13.50;;;10.60;83.90;;;;;;4944963;28;113095;-55
2024/03/07 05:46:45;;;;;;;14.52;13.13;;;10.70;83.70;;;;;;4945527;28;112805;-55
2024/03/07 05:49:11;;;;;;;13.77;12.48;;;10.70;83.60;;;;;;4945677;28;113061;-55
2024/03/07 05:51:37;;;;;;;12.73;11.48;;;10.60;83.70;;;;;;4944927;28;113287;-54
2024/03/07 05:54:06;;;;;;;13.75;12.50;;;10.70;83.20;;;;;;4944569;28;114090;-55
2024/03/07 05:56:35;;;;;;;15.18;13.77;;;10.50;83.50;;;;;;4945384;28;112902;-55
2024/03/07 05:59:04;;;;;;;12.93;11.73;;;10.60;83.40;;;;;;4948835;28;112971;-55
2024/03/07 06:01:34;;;;;;;14.23;12.63;;;10.60;83.70;;;;;;4976354;28;113341;-55
2024/03/07 06:04:00;;;;;;;14.43;13.15;;;10.60;83.40;;;;;;4986112;28;113873;-55
2024/03/07 06:06:27;;;;;;;15.50;13.98;;;10.60;83.70;;;;;;4987486;28;112460;-55
2024/03/07 06:08:53;;;;;;;14.55;13.05;;;10.50;83.70;;;;;;4987127;28;112821;-55
2024/03/07 06:11:21;;;;;;;15.18;13.65;;;10.50;84.30;;;;;;4986392;28;113161;-55
2024/03/07 06:13:50;;;;;;;15.35;13.75;;;10.60;84.30;;;;;;4985924;28;114171;-55
2024/03/07 06:16:16;;;;;;;15.02;13.48;;;10.50;84.20;;;;;;4986455;28;112644;-55
2024/03/07 06:18:41;;;;;;;14.85;13.35;;;10.60;84.40;;;;;;4987182;28;112679;-55
2024/03/07 06:21:08;;;;;;;15.57;13.55;;;10.60;84.40;;;;;;4984549;28;114570;-55
2024/03/07 06:23:34;;;;;;;13.55;12.25;;;10.60;84.00;;;;;;4986206;28;115090;-55
2024/03/07 06:26:00;;;;;;;13.18;11.85;;;10.60;84.00;;;;;;4986603;28;112715;-55
2024/03/07 06:28:28;;;;;;;12.57;11.38;;;10.70;83.70;;;;;;4983168;28;113085;-55
2024/03/07 06:30:54;;;;;;;12.65;11.45;;;10.70;83.70;;;;;;4975703;28;114447;-55
2024/03/07 06:33:21;;;;;;;12.98;11.68;;;10.80;83.70;;;;;;4984290;28;113856;-55
2024/03/07 06:35:47;;;;;;;16.48;13.70;;;10.80;83.90;;;;;;4986816;28;112769;-55
2024/03/07 06:38:14;;;;;;;15.70;14.15;;;10.80;83.70;;;;;;4987075;28;112865;-55
2024/03/07 06:40:44;;;;;;;15.02;13.52;;;10.80;83.70;;;;;;4985649;28;115043;-55
2024/03/07 06:43:13;;;;;;;15.52;14.13;;;10.70;84.10;;;;;;4985747;28;112731;-55
2024/03/07 06:45:41;;;;;;;14.80;13.32;;;10.70;83.90;;;;;;4986594;28;112604;-54
2024/03/07 06:48:07;;;;;;;14.32;13.02;;;10.70;83.90;;;;;;4987451;28;113081;-55
2024/03/07 06:50:37;;;;;;;14.50;13.00;;;10.80;83.90;;;;;;4985332;28;113209;-55
2024/03/07 06:53:06;;;;;;;13.48;12.07;;;10.70;83.70;;;;;;4985873;28;113089;-55
2024/03/07 06:55:36;;;;;;;14.02;12.43;;;10.70;83.50;;;;;;4985096;28;112786;-55
2024/03/07 06:58:04;;;;;;;12.25;11.15;;;10.80;83.20;;;;;;4986536;28;112740;-54
2024/03/07 07:00:35;;;;;;;13.25;11.98;;;10.80;83.20;;;;;;4985304;28;113189;-55
2024/03/07 07:03:03;;;;;;;13.57;11.73;;;10.80;83.60;;;;;;4985410;28;112636;-55
2024/03/07 07:05:29;;;;;;;13.23;11.82;;;10.90;83.50;;;;;;4986181;28;112889;-55
2024/03/07 07:07:55;;;;;;;13.93;12.20;;;10.90;83.30;;;;;;4986247;28;112671;-54
2024/03/07 07:10:23;;;;;;;11.70;10.50;;;10.90;83.10;;;;;;4976476;28;114853;-54
2024/03/07 07:12:50;;;;;;;13.65;11.55;;;10.90;83.40;;;;;;4968389;28;116323;-55
2024/03/07 07:15:18;;;;;;;13.23;10.73;;;11.00;83.00;;;;;;4966004;28;112731;-55
2024/03/07 07:17:46;;;;;;;13.18;11.70;;;11.00;82.60;;;;;;4966165;28;112781;-54
2024/03/07 07:20:14;;;;;;;15.88;10.75;;;10.90;82.60;;;;;;4965391;28;114334;-55
2024/03/07 07:22:41;;;;;;;14.07;11.63;;;10.90;82.10;;;;;;4964962;28;113794;-55
2024/03/07 07:25:13;;;;;;;13.30;10.85;;;11.00;81.40;;;;;;4965752;28;113930;-54
2024/03/07 07:27:44;;;;;;;13.32;11.23;;;11.00;80.70;;;;;;4966209;28;112745;-54
2024/03/07 07:30:12;;;;;;;12.57;11.27;;;10.90;80.60;;;;;;4968871;28;113255;-55
2024/03/07 07:32:39;;;;;;;17.30;12.52;;;11.00;80.30;;;;;;4985107;28;112757;-55
2024/03/07 07:35:11;;;;;;;17.58;12.90;;;10.90;80.20;;;;;;4985666;28;112811;-55
2024/03/07 07:37:39;;;;;;;16.52;12.02;;;10.80;80.40;;;;;;4986600;28;112838;-54
2024/03/07 07:40:12;;;;;;;17.88;13.07;;;10.80;80.60;;;;;;4982593;28;113273;-54
2024/03/07 07:42:39;;;;;;;13.00;11.05;;;10.80;80.50;;;;;;4977219;28;113156;-55
2024/03/07 07:45:12;;;;;;;15.95;11.73;;;11.00;79.10;;;;;;4981212;28;112799;-55
2024/03/07 07:47:43;;;;;;;12.95;11.50;;;11.10;78.70;;;;;;4982278;28;112611;-55
2024/03/07 07:50:14;;;;;;;13.27;11.88;;;11.00;77.30;;;;;;4982757;28;113250;-55
2024/03/07 07:53:00;;;;;;;12.45;9.52;;;11.00;78.00;;;;;;4964604;28;114004;-55
2024/03/07 07:55:27;;;;;;;13.52;9.77;;;11.10;75.60;;;;;;4967349;28;113665;-55
2024/03/07 07:57:54;;;;;;;12.57;9.43;;;11.30;75.00;;;;;;4978537;28;112616;-55
2024/03/07 08:00:24;;;;;;;12.75;10.07;;;11.30;75.00;;;;;;4966371;28;113522;-55
2024/03/07 08:02:52;;;;;;;11.75;9.68;;;11.40;76.10;;;;;;4964873;28;113678;-55
2024/03/07 08:05:25;;;;;;;4.82;4.07;;;11.40;76.20;;;;;;4981879;28;113611;-55
2024/03/07 08:07:51;;;;;;;8.23;5.65;;;11.30;71.40;;;;;;4975370;28;113101;-55
2024/03/07 08:10:19;;;;;;;4.85;3.70;;;11.30;72.00;;;;;;4972005;28;114824;-53
2024/03/07 08:12:45;;;;;;;5.10;4.30;;;11.30;70.30;;;;;;4973726;28;113983;-54
2024/03/07 08:15:14;;;;;;;5.28;3.83;;;11.40;72.70;;;;;;4984720;28;112853;-54
2024/03/07 08:17:44;;;;;;;4.97;4.25;;;11.60;67.60;;;;;;4978766;28;112894;-54
2024/03/07 08:20:11;;;;;;;6.30;4.07;;;11.50;69.10;;;;;;4975088;28;113183;-52
2024/03/07 08:22:41;;;;;;;8.63;4.60;;;11.60;69.90;;;;;;4975523;28;113909;-52
2024/03/07 08:25:12;;;;;;;6.13;4.35;;;11.70;72.50;;;;;;4976258;28;113021;-52
2024/03/07 08:27:39;;;;;;;6.80;4.38;;;11.60;72.60;;;;;;4969374;28;112713;-53
2024/03/07 08:30:06;;;;;;;6.13;4.15;;;11.60;72.90;;;;;;4982244;28;113189;-53
2024/03/07 08:32:37;;;;;;;6.85;4.55;;;11.90;73.00;;;;;;4988398;28;112695;-53
2024/03/07 08:35:06;;;;;;;4.40;3.80;;;11.90;72.80;;;;;;4988667;28;112848;-53
2024/03/07 08:37:34;;;;;;;7.20;3.47;;;11.90;72.30;;;;;;4976067;28;112920;-52
2024/03/07 08:40:01;;;;;;;3.78;2.95;;;11.90;70.50;;;;;;4978479;28;113135;-53
2024/03/07 08:42:27;;;;;;;4.07;3.00;;;12.10;68.00;;;;;;4968873;28;113368;-53
2024/03/07 08:44:52;;;;;;;3.83;3.03;;;12.20;67.30;;;;;;4992090;28;112730;-53
2024/03/07 08:47:18;;;;;;;4.95;2.83;;;12.30;67.30;;;;;;4969421;28;113231;-52
2024/03/07 08:49:44;;;;;;;4.75;3.47;;;12.40;68.30;;;;;;4979534;28;116629;-52
2024/03/07 08:52:09;;;;;;;4.30;3.03;;;12.50;68.70;;;;;;4971039;28;112895;-53
2024/03/07 08:54:35;;;;;;;3.22;2.70;;;12.40;68.20;;;;;;4968412;28;112927;-53
2024/03/07 08:57:01;;;;;;;3.00;2.70;;;12.40;65.90;;;;;;4974903;28;112804;-54
2024/03/07 08:59:26;;;;;;;4.22;2.90;;;12.50;64.40;;;;;;4970746;28;115340;-53
2024/03/07 09:01:52;;;;;;;3.15;2.80;;;12.40;65.40;;;;;;4968185;28;112709;-54
2024/03/07 09:04:18;;;;;;;4.45;2.97;;;12.30;64.60;;;;;;4973212;28;112848;-53
2024/03/07 09:06:46;;;;;;;4.60;2.90;;;12.50;65.10;;;;;;4970219;28;112925;-53
2024/03/07 09:09:13;;;;;;;5.43;3.47;;;12.50;64.20;;;;;;4972721;28;113294;-53
2024/03/07 09:11:42;;;;;;;5.07;3.88;;;12.50;65.40;;;;;;4968896;28;113833;-53
2024/03/07 09:14:09;;;;;;;5.05;4.22;;;12.60;66.00;;;;;;4972421;28;112630;-53
2024/03/07 09:16:36;;;;;;;6.00;4.10;;;12.70;65.80;;;;;;4969682;28;113194;-53
2024/03/07 09:19:02;;;;;;;5.93;4.53;;;12.80;65.70;;;;;;4975074;28;114299;-53
2024/03/07 09:21:29;;;;;;;5.95;4.43;;;12.80;64.60;;;;;;4969877;28;113064;-53
2024/03/07 09:23:55;;;;;;;5.85;4.20;;;12.70;64.30;;;;;;4977331;28;112905;-53
2024/03/07 09:26:20;;;;;;;5.22;3.90;;;12.60;64.40;;;;;;4980703;28;112683;-53
2024/03/07 09:28:46;;;;;;;5.07;4.00;;;12.60;64.10;;;;;;4977318;28;113621;-53
2024/03/07 09:31:14;;;;;;;4.28;3.83;;;12.50;64.70;;;;;;4979481;28;113129;-53
2024/03/07 09:33:40;;;;;;;5.47;4.15;;;12.40;65.40;;;;;;4978372;28;113892;-54
2024/03/07 09:36:06;;;;;;;5.22;4.07;;;12.40;65.30;;;;;;4966317;28;113087;-54
2024/03/07 09:38:32;;;;;;;3.63;3.30;;;12.40;66.60;;;;;;4966340;28;113546;-54
2024/03/07 09:40:59;;;;;;;4.63;3.20;;;12.50;64.50;;;;;;4967443;28;112748;-54
2024/03/07 09:43:28;;;;;;;4.65;3.38;;;12.50;64.10;;;;;;5000097;27;113317;-54
2024/03/07 09:45:55;;;;;;;4.40;3.55;;;12.40;64.30;;;;;;4968420;28;113046;-54
2024/03/07 09:48:25;;;;;;;3.58;3.13;;;12.40;65.00;;;;;;4967515;28;113118;-54
2024/03/07 09:50:54;;;;;;;3.60;2.35;;;12.30;65.60;;;;;;4966882;28;114211;-54
2024/03/07 09:53:21;;;;;;;4.65;2.50;;;12.30;64.30;;;;;;4968014;28;112968;-54
2024/03/07 09:55:47;;;;;;;2.47;2.10;;;12.30;63.30;;;;;;4970585;28;112750;-53
2024/03/07 09:58:19;;;;;;;2.50;1.90;;;12.30;63.10;;;;;;4985111;28;114391;-53
2024/03/07 10:00:46;;;;;;;1.95;1.75;;;12.30;63.50;;;;;;4983622;28;114047;-53
2024/03/07 10:03:15;;;;;;;3.65;2.28;;;12.30;64.50;;;;;;4985799;28;113007;-53
2024/03/07 10:05:42;;;;;;;1.95;1.58;;;12.40;64.50;;;;;;4973835;28;113070;-55
2024/03/07 10:08:07;;;;;;;2.10;1.90;;;12.30;64.30;;;;;;4976558;28;113221;-55
2024/03/07 10:10:33;;;;;;;1.85;1.73;;;12.30;66.10;;;;;;4980241;28;113239;-55
2024/03/07 10:12:59;;;;;;;4.45;2.10;;;12.30;67.10;;;;;;4970407;28;112505;-55
2024/03/07 10:15:29;;;;;;;3.50;2.20;;;12.40;66.60;;;;;;4980686;28;113213;-54
2024/03/07 10:17:55;;;;;;;4.20;2.22;;;12.50;66.50;;;;;;4973584;28;113142;-54
2024/03/07 10:20:22;;;;;;;2.38;1.80;;;12.40;66.70;;;;;;4969340;28;112706;-54
2024/03/07 10:22:48;;;;;;;2.65;2.22;;;12.40;64.20;;;;;;4972172;28;112611;-54
2024/03/07 10:25:18;;;;;;;2.30;1.75;;;12.40;62.90;;;;;;4982659;28;112733;-56
2024/03/07 10:27:47;;;;;;;2.33;1.83;;;12.50;62.10;;;;;;4976149;28;114784;-54
2024/03/07 10:30:20;;;;;;;2.55;2.00;;;12.70;61.10;;;;;;4971033;28;112887;-54
2024/03/07 10:32:46;;;;;;;5.35;2.10;;;12.70;58.40;;;;;;4979994;28;112624;-53
2024/03/07 10:35:14;;;;;;;6.82;2.53;;;12.80;59.70;;;;;;4972823;28;112759;-54
2024/03/07 10:37:40;;;;;;;3.70;2.00;;;12.80;59.10;;;;;;4977626;28;114043;-53
2024/03/07 10:40:17;;;;;;;2.65;2.10;;;13.00;59.90;;;;;;4975308;28;112734;-54
2024/03/07 10:42:51;;;;;;;3.47;2.22;;;13.30;58.70;;;;;;4969371;28;112790;-54
2024/03/07 10:45:18;;;;;;;4.18;3.08;;;13.40;59.10;;;;;;4970111;28;112634;-53
2024/03/07 10:47:50;;;;;;;4.20;2.97;;;13.50;56.10;;;;;;4970677;28;114941;-54
2024/03/07 10:50:33;;;;;;;4.10;2.55;;;13.90;55.90;;;;;;4978562;28;113086;-54
2024/03/07 10:53:02;;;;;;;3.40;2.35;;;14.00;56.20;;;;;;4967983;28;112918;-53
2024/03/07 10:55:36;;;;;;;3.53;1.65;;;14.20;55.40;;;;;;4968659;28;113301;-54
2024/03/07 10:58:12;;;;;;;3.38;2.03;;;14.30;52.30;;;;;;4976656;28;114615;-55
2024/03/07 11:00:43;;;;;;;3.83;2.00;;;14.30;54.10;;;;;;4971038;28;113965;-55
2024/03/07 11:03:11;;;;;;;3.60;2.20;;;14.20;56.50;;;;;;4971969;28;112977;-55
2024/03/07 11:05:39;;;;;;;3.60;2.50;;;14.40;56.50;;;;;;4975276;28;112941;-54
2024/03/07 11:08:14;;;;;;;3.75;2.72;;;14.40;54.60;;;;;;4978571;28;113420;-54
2024/03/07 11:10:40;;;;;;;3.63;2.45;;;14.40;55.20;;;;;;4971645;28;113816;-54
2024/03/07 11:13:12;;;;;;;4.85;2.20;;;14.40;52.80;;;;;;4973261;28;112525;-54
2024/03/07 11:15:42;;;;;;;3.47;2.50;;;14.30;53.00;;;;;;4966995;28;113018;-54
2024/03/07 11:18:09;;;;;;;3.33;3.00;;;14.40;54.60;;;;;;4965641;28;113234;-54
2024/03/07 11:20:37;;;;;;;5.03;2.90;;;14.20;56.00;;;;;;4969937;28;114052;-54
2024/03/07 11:23:29;;;;;;;3.22;2.92;;;13.90;56.20;;;;;;4972310;28;112748;-53
2024/03/07 11:26:01;;;;;;;3.30;3.00;;;13.90;59.60;;;;;;4969402;28;112818;-55
2024/03/07 11:28:29;;;;;;;3.97;2.90;;;14.00;60.00;;;;;;4971324;28;113200;-55
2024/03/07 11:31:06;;;;;;;8.10;2.72;;;14.20;60.00;;;;;;4975498;28;113006;-54
2024/03/07 11:33:34;;;;;;;7.50;2.15;;;14.30;58.60;;;;;;4972577;28;113095;-55
2024/03/07 11:36:01;;;;;;;2.30;2.00;;;14.20;56.50;;;;;;4986584;28;113150;-55
2024/03/07 11:38:34;;;;;;;2.75;1.92;;;14.30;54.90;;;;;;4985475;28;113368;-54
2024/03/07 11:41:02;;;;;;;3.47;1.70;;;14.40;55.40;;;;;;4985423;28;113327;-54
2024/03/07 11:43:28;;;;;;;4.05;2.75;;;14.40;54.60;;;;;;4976985;28;114044;-54
2024/03/07 11:45:57;;;;;;;3.97;3.38;;;14.00;56.70;;;;;;4975093;28;113142;-54
2024/03/07 11:48:24;;;;;;;4.20;3.75;;;13.90;59.00;;;;;;4978198;28;114487;-53
2024/03/07 11:50:50;;;;;;;4.63;4.07;;;14.30;58.70;;;;;;4986053;28;112889;-53
2024/03/07 11:53:16;;;;;;;8.68;5.25;;;14.20;60.20;;;;;;4979240;28;112650;-55
2024/03/07 11:55:45;;;;;;;7.45;4.90;;;14.20;61.40;;;;;;4973239;28;113218;-54
2024/03/07 11:58:18;;;;;;;7.28;4.95;;;13.80;63.50;;;;;;4980141;28;113413;-55
2024/03/07 12:00:47;;;;;;;7.97;5.47;;;13.90;63.00;;;;;;4971833;28;113076;-55
2024/03/07 12:03:16;;;;;;;6.43;5.30;;;13.80;63.70;;;;;;4982284;28;112852;-56
2024/03/07 12:05:43;;;;;;;6.32;5.20;;;13.60;64.30;;;;;;4977647;28;113149;-55
2024/03/07 12:08:10;;;;;;;7.88;5.50;;;13.40;62.90;;;;;;4979598;28;113574;-55
2024/03/07 12:10:43;;;;;;;6.25;5.30;;;13.40;62.50;;;;;;4973247;28;113597;-55
2024/03/07 12:13:15;;;;;;;6.60;5.47;;;13.40;63.20;;;;;;4978754;28;112745;-55
2024/03/07 12:15:42;;;;;;;6.18;5.57;;;13.50;61.50;;;;;;4976173;28;112741;-55
2024/03/07 12:18:09;;;;;;;7.18;5.97;;;13.50;62.10;;;;;;4981445;28;114447;-55
2024/03/07 12:20:40;;;;;;;9.48;5.80;;;13.30;63.20;;;;;;4979774;28;113885;-55
2024/03/07 12:23:11;;;;;;;7.07;5.40;;;13.40;63.70;;;;;;4978622;28;112755;-55
2024/03/07 12:25:42;;;;;;;6.88;5.57;;;13.40;62.80;;;;;;4980596;28;113130;-55
2024/03/07 12:28:12;;;;;;;7.43;5.95;;;13.60;62.20;;;;;;4979006;28;114610;-55
2024/03/07 12:30:46;;;;;;;6.90;6.20;;;13.40;63.10;;;;;;4979373;28;112957;-55